createdAt,value
2018-11-01T00:00:17.315Z,4.10
2018-11-01T00:01:25.991Z,3.00
2018-11-01T00:02:29.399Z,4.47
2018-11-01T00:03:33.489Z,3.20
2018-11-01T00:04:36.940Z,3.80
2018-11-01T00:05:40.317Z,5.73
2018-11-01T00:06:43.721Z,3.30
2018-11-01T00:07:47.161Z,4.90
2018-11-01T00:08:50.574Z,4.20
2018-11-01T00:09:53.951Z,4.43
2018-11-01T00:10:57.345Z,3.50
2018-11-01T00:12:00.741Z,2.90
2018-11-01T00:13:04.162Z,2.90
2018-11-01T00:14:08.034Z,3.40
2018-11-01T00:15:13.097Z,2.80
2018-11-01T00:16:16.641Z,4.20
2018-11-01T00:17:20.081Z,4.27
2018-11-01T00:18:23.496Z,4.73
2018-11-01T00:19:26.881Z,4.23
2018-11-01T00:20:30.330Z,3.70
2018-11-01T00:21:33.758Z,3.87
2018-11-01T00:22:37.138Z,3.60
2018-11-01T00:23:40.910Z,2.10
2018-11-01T00:24:44.292Z,2.97
2018-11-01T00:25:47.698Z,3.37
2018-11-01T00:26:51.149Z,3.67
2018-11-01T00:27:54.528Z,3.53
2018-11-01T00:28:57.929Z,3.47
2018-11-01T00:30:01.360Z,3.40
2018-11-01T00:31:04.886Z,2.33
2018-11-01T00:32:08.308Z,3.37
2018-11-01T00:33:11.856Z,3.93
2018-11-01T00:34:15.256Z,2.87
2018-11-01T00:35:18.661Z,4.47
2018-11-01T00:36:22.156Z,3.40
2018-11-01T00:37:25.572Z,2.90
2018-11-01T00:38:28.944Z,3.70
2018-11-01T00:39:32.449Z,3.23
2018-11-01T00:40:35.869Z,3.20
2018-11-01T00:41:39.576Z,2.83
2018-11-01T00:42:43.758Z,3.90
2018-11-01T00:43:47.322Z,2.80
2018-11-01T00:44:50.708Z,3.60
2018-11-01T00:45:54.104Z,4.63
2018-11-01T00:46:57.514Z,3.77
2018-11-01T00:48:00.961Z,2.63
2018-11-01T00:49:04.386Z,3.67
2018-11-01T00:50:10.432Z,3.20
2018-11-01T00:51:13.843Z,2.90
2018-11-01T00:52:17.329Z,2.80
2018-11-01T00:53:20.733Z,4.13
2018-11-01T00:54:24.139Z,3.30
2018-11-01T00:55:27.553Z,4.80
2018-11-01T00:56:30.977Z,4.10
2018-11-01T00:57:34.397Z,2.90
2018-11-01T00:58:37.804Z,5.87
2018-11-01T00:59:41.206Z,2.70
2018-11-01T01:00:44.712Z,2.83
2018-11-01T01:01:48.130Z,2.77
2018-11-01T01:02:51.547Z,3.93
2018-11-01T01:03:54.952Z,2.87
2018-11-01T01:04:58.499Z,2.67
2018-11-01T01:06:01.932Z,3.97
2018-11-01T01:07:05.678Z,3.57
2018-11-01T01:08:09.130Z,3.40
2018-11-01T01:09:13.984Z,3.67
2018-11-01T01:10:18.392Z,3.27
2018-11-01T01:11:21.804Z,3.60
2018-11-01T01:12:25.182Z,3.10
2018-11-01T01:13:28.567Z,3.50
2018-11-01T01:14:32.015Z,3.00
2018-11-01T01:15:35.578Z,3.20
2018-11-01T01:16:39.024Z,3.97
2018-11-01T01:17:42.408Z,4.23
2018-11-01T01:18:45.883Z,2.97
2018-11-01T01:19:49.272Z,2.80
2018-11-01T01:20:52.662Z,3.90
2018-11-01T01:21:56.022Z,2.80
2018-11-01T01:22:59.467Z,2.83
2018-11-01T01:24:03.051Z,3.40
2018-11-01T01:25:08.877Z,4.17
2018-11-01T01:26:12.308Z,3.27
2018-11-01T01:27:15.837Z,3.00
2018-11-01T01:28:19.240Z,3.23
2018-11-01T01:29:22.640Z,2.20
2018-11-01T01:30:26.018Z,3.90
2018-11-01T01:31:29.663Z,3.77
2018-11-01T01:32:33.187Z,3.30
2018-11-01T01:33:36.621Z,3.00
2018-11-01T01:34:40.084Z,2.70
2018-11-01T01:35:43.480Z,2.77
2018-11-01T01:36:46.948Z,4.13
2018-11-01T01:37:50.381Z,3.13
2018-11-01T01:38:53.742Z,3.30
2018-11-01T01:39:57.160Z,3.13
2018-11-01T01:41:00.647Z,3.00
2018-11-01T01:42:04.137Z,4.10
2018-11-01T01:43:07.552Z,2.63
2018-11-01T01:44:11.019Z,2.87
2018-11-01T01:45:14.805Z,3.20
2018-11-01T01:46:18.231Z,2.93
2018-11-01T01:47:21.686Z,3.70
2018-11-01T01:48:25.068Z,2.40
2018-11-01T01:49:28.720Z,3.57
2018-11-01T01:50:32.135Z,2.67
2018-11-01T01:51:35.605Z,3.60
2018-11-01T01:52:39.008Z,2.73
2018-11-01T01:53:42.385Z,2.77
2018-11-01T01:54:45.786Z,2.47
2018-11-01T01:55:49.251Z,3.10
2018-11-01T01:56:52.657Z,2.53
2018-11-01T01:57:56.040Z,3.07
2018-11-01T01:58:59.427Z,2.90
2018-11-01T02:00:02.893Z,2.93
2018-11-01T02:01:06.725Z,2.77
2018-11-01T02:02:10.102Z,2.63
2018-11-01T02:03:13.484Z,4.20
2018-11-01T02:04:16.861Z,2.93
2018-11-01T02:05:20.268Z,2.73
2018-11-01T02:06:23.684Z,3.37
2018-11-01T02:07:27.067Z,2.40
2018-11-01T02:08:30.568Z,2.60
2018-11-01T02:09:33.978Z,2.70
2018-11-01T02:10:37.348Z,3.10
2018-11-01T02:11:41.670Z,2.50
2018-11-01T02:12:45.099Z,2.03
2018-11-01T02:13:48.512Z,2.60
2018-11-01T02:14:51.934Z,3.30
2018-11-01T02:15:55.298Z,2.50
2018-11-01T02:16:58.724Z,3.27
2018-11-01T02:18:02.171Z,3.03
2018-11-01T02:19:06.224Z,2.10
2018-11-01T02:20:12.624Z,2.90
2018-11-01T02:21:16.031Z,2.77
2018-11-01T02:22:19.451Z,4.57
2018-11-01T02:23:22.900Z,3.23
2018-11-01T02:24:26.367Z,2.73
2018-11-01T02:25:29.857Z,2.90
2018-11-01T02:26:33.456Z,2.50
2018-11-01T02:27:42.337Z,3.53
2018-11-01T02:28:45.732Z,2.80
2018-11-01T02:29:49.109Z,2.23
2018-11-01T02:30:52.534Z,2.70
2018-11-01T02:31:56.158Z,3.10
2018-11-01T02:32:59.599Z,2.30
2018-11-01T02:34:03.125Z,2.50
2018-11-01T02:35:07.675Z,2.60
2018-11-01T02:36:11.067Z,3.00
2018-11-01T02:37:15.400Z,2.13
2018-11-01T02:38:18.847Z,2.60
2018-11-01T02:39:22.247Z,2.17
2018-11-01T02:40:25.648Z,2.90
2018-11-01T02:41:29.024Z,3.73
2018-11-01T02:42:32.462Z,2.10
2018-11-01T02:43:35.859Z,3.50
2018-11-01T02:44:39.309Z,2.90
2018-11-01T02:45:42.801Z,3.03
2018-11-01T02:46:46.173Z,3.77
2018-11-01T02:47:49.604Z,5.27
2018-11-01T02:48:52.979Z,3.20
2018-11-01T02:49:56.370Z,4.87
2018-11-01T02:50:59.823Z,7.53
2018-11-01T02:52:03.268Z,4.60
2018-11-01T02:53:06.685Z,4.40
2018-11-01T02:54:10.074Z,4.87
2018-11-01T02:55:13.509Z,5.57
2018-11-01T02:56:17.032Z,23.27
2018-11-01T02:57:20.555Z,10.80
2018-11-01T02:58:24.040Z,5.70
2018-11-01T02:59:27.515Z,6.47
2018-11-01T03:00:31.633Z,3.20
2018-11-01T03:01:35.386Z,4.67
2018-11-01T03:02:39.219Z,5.50
2018-11-01T03:03:43.500Z,2.90
2018-11-01T03:04:46.978Z,3.40
2018-11-01T03:05:50.396Z,3.47
2018-11-01T03:06:53.916Z,7.70
2018-11-01T03:07:57.287Z,4.50
2018-11-01T03:09:00.711Z,3.90
2018-11-01T03:10:04.705Z,3.63
2018-11-01T03:11:08.109Z,6.00
2018-11-01T03:12:11.540Z,9.23
2018-11-01T03:13:14.955Z,5.27
2018-11-01T03:14:18.344Z,2.73
2018-11-01T03:15:21.770Z,4.40
2018-11-01T03:16:25.194Z,8.53
2018-11-01T03:17:28.600Z,2.60
2018-11-01T03:18:31.987Z,9.20
2018-11-01T03:19:36.063Z,2.67
2018-11-01T03:20:39.456Z,3.47
2018-11-01T03:21:42.878Z,3.13
2018-11-01T03:22:46.251Z,2.83
2018-11-01T03:23:49.621Z,4.03
2018-11-01T03:24:53.021Z,2.70
2018-11-01T03:25:56.435Z,4.43
2018-11-01T03:26:59.814Z,3.67
2018-11-01T03:28:03.300Z,2.23
2018-11-01T03:29:06.884Z,3.73
2018-11-01T03:30:10.687Z,3.40
2018-11-01T03:31:14.116Z,3.10
2018-11-01T03:32:17.539Z,3.27
2018-11-01T03:33:20.946Z,3.20
2018-11-01T03:34:24.332Z,3.10
2018-11-01T03:35:27.754Z,2.87
2018-11-01T03:36:31.138Z,6.23
2018-11-01T03:37:34.794Z,6.33
2018-11-01T03:38:38.227Z,3.23
2018-11-01T03:39:41.671Z,2.40
2018-11-01T03:40:45.054Z,2.60
2018-11-01T03:41:48.458Z,3.17
2018-11-01T03:42:51.883Z,2.90
2018-11-01T03:43:55.471Z,3.33
2018-11-01T03:44:58.934Z,2.37
2018-11-01T03:46:02.611Z,3.40
2018-11-01T03:47:06.033Z,2.40
2018-11-01T03:48:09.407Z,3.40
2018-11-01T03:49:12.866Z,2.53
2018-11-01T03:50:16.295Z,3.40
2018-11-01T03:51:19.743Z,2.53
2018-11-01T03:52:23.171Z,2.17
2018-11-01T03:53:26.616Z,4.90
2018-11-01T03:54:30.022Z,2.33
2018-11-01T03:55:33.461Z,2.27
2018-11-01T03:56:36.869Z,3.00
2018-11-01T03:57:40.981Z,2.10
2018-11-01T03:58:44.383Z,3.20
2018-11-01T03:59:47.800Z,2.20
2018-11-01T04:00:51.217Z,4.90
2018-11-01T04:01:54.629Z,2.43
2018-11-01T04:02:58.029Z,2.10
2018-11-01T04:04:01.501Z,2.00
2018-11-01T04:05:04.961Z,3.60
2018-11-01T04:06:08.373Z,3.70
2018-11-01T04:07:11.754Z,2.47
2018-11-01T04:08:15.184Z,2.13
2018-11-01T04:09:18.624Z,3.50
2018-11-01T04:10:22.136Z,3.00
2018-11-01T04:11:25.565Z,2.30
2018-11-01T04:12:29.023Z,2.10
2018-11-01T04:13:32.485Z,4.37
2018-11-01T04:14:35.890Z,3.07
2018-11-01T04:15:39.303Z,2.23
2018-11-01T04:16:42.732Z,1.97
2018-11-01T04:17:46.136Z,2.20
2018-11-01T04:18:49.548Z,2.07
2018-11-01T04:19:53.004Z,2.17
2018-11-01T04:20:56.472Z,2.10
2018-11-01T04:22:06.887Z,2.50
2018-11-01T04:23:10.377Z,1.63
2018-11-01T04:24:13.716Z,1.83
2018-11-01T04:25:17.129Z,1.90
2018-11-01T04:26:20.592Z,2.90
2018-11-01T04:27:24.083Z,2.50
2018-11-01T04:28:27.495Z,3.47
2018-11-01T04:29:30.874Z,1.93
2018-11-01T04:30:34.485Z,2.23
2018-11-01T04:31:37.907Z,6.10
2018-11-01T04:32:41.353Z,4.40
2018-11-01T04:33:44.959Z,3.40
2018-11-01T04:34:48.186Z,1.70
2018-11-01T04:35:51.690Z,1.97
2018-11-01T04:36:55.127Z,1.67
2018-11-01T04:37:58.527Z,1.93
2018-11-01T04:39:01.961Z,1.47
2018-11-01T04:40:06.279Z,3.17
2018-11-01T04:41:09.732Z,8.00
2018-11-01T04:42:13.172Z,2.30
2018-11-01T04:43:16.603Z,3.30
2018-11-01T04:44:20.085Z,2.60
2018-11-01T04:45:23.484Z,1.93
2018-11-01T04:46:26.925Z,2.00
2018-11-01T04:47:30.379Z,3.77
2018-11-01T04:48:33.878Z,2.30
2018-11-01T04:49:37.417Z,1.60
2018-11-01T04:50:40.844Z,2.10
2018-11-01T04:51:44.252Z,2.53
2018-11-01T04:52:47.686Z,2.67
2018-11-01T04:53:51.203Z,2.50
2018-11-01T04:54:54.956Z,2.30
2018-11-01T04:55:58.362Z,2.70
2018-11-01T04:57:01.797Z,1.70
2018-11-01T04:58:05.494Z,1.53
2018-11-01T04:59:09.035Z,2.57
2018-11-01T05:00:13.895Z,1.83
2018-11-01T05:01:21.240Z,3.23
2018-11-01T05:02:24.661Z,4.20
2018-11-01T05:03:28.196Z,2.70
2018-11-01T05:04:31.652Z,1.40
2018-11-01T05:05:35.319Z,1.80
2018-11-01T05:06:38.706Z,2.43
2018-11-01T05:07:42.111Z,2.00
2018-11-01T05:08:45.597Z,1.50
2018-11-01T05:09:49.066Z,3.60
2018-11-01T05:10:52.460Z,1.60
2018-11-01T05:11:55.842Z,1.60
2018-11-01T05:12:59.284Z,1.23
2018-11-01T05:14:03.230Z,1.87
2018-11-01T05:15:07.358Z,3.30
2018-11-01T05:16:10.705Z,1.30
2018-11-01T05:17:14.082Z,3.50
2018-11-01T05:18:17.471Z,2.00
2018-11-01T05:19:20.923Z,3.13
2018-11-01T05:20:24.369Z,1.63
2018-11-01T05:21:27.790Z,2.47
2018-11-01T05:22:31.168Z,1.63
2018-11-01T05:23:34.668Z,3.43
2018-11-01T05:24:38.191Z,1.97
2018-11-01T05:25:41.568Z,2.33
2018-11-01T05:26:44.968Z,2.00
2018-11-01T05:27:48.369Z,1.70
2018-11-01T05:28:51.758Z,1.40
2018-11-01T05:29:55.198Z,2.00
2018-11-01T05:30:58.617Z,1.23
2018-11-01T05:32:02.061Z,1.30
2018-11-01T05:33:05.780Z,1.17
2018-11-01T05:34:09.142Z,1.10
2018-11-01T05:35:12.584Z,1.73
2018-11-01T05:36:15.957Z,1.57
2018-11-01T05:37:19.343Z,1.67
2018-11-01T05:38:22.745Z,1.30
2018-11-01T05:39:26.152Z,1.30
2018-11-01T05:40:29.555Z,1.87
2018-11-01T05:41:32.990Z,1.37
2018-11-01T05:42:36.491Z,3.30
2018-11-01T05:43:39.858Z,1.40
2018-11-01T05:44:43.266Z,1.40
2018-11-01T05:45:46.665Z,2.00
2018-11-01T05:46:50.083Z,1.20
2018-11-01T05:47:53.490Z,1.33
2018-11-01T05:48:56.893Z,1.03
2018-11-01T05:50:00.311Z,1.63
2018-11-01T05:51:03.715Z,1.30
2018-11-01T05:52:07.550Z,1.50
2018-11-01T05:53:10.964Z,1.30
2018-11-01T05:54:14.855Z,1.10
2018-11-01T05:55:18.278Z,1.30
2018-11-01T05:56:21.711Z,2.37
2018-11-01T05:57:25.274Z,1.53
2018-11-01T05:58:28.685Z,1.33
2018-11-01T05:59:32.080Z,1.53
2018-11-01T06:00:35.726Z,1.27
2018-11-01T06:01:43.319Z,1.30
2018-11-01T06:02:49.295Z,2.00
2018-11-01T06:03:52.696Z,1.73
2018-11-01T06:04:56.128Z,2.20
2018-11-01T06:05:59.529Z,1.60
2018-11-01T06:07:02.996Z,2.33
2018-11-01T06:08:08.714Z,1.17
2018-11-01T06:09:16.269Z,1.50
2018-11-01T06:10:19.680Z,1.20
2018-11-01T06:11:23.087Z,1.83
2018-11-01T06:12:26.566Z,3.80
2018-11-01T06:13:29.931Z,1.03
2018-11-01T06:14:33.389Z,1.30
2018-11-01T06:15:36.878Z,1.10
2018-11-01T06:16:40.285Z,1.03
2018-11-01T06:17:43.680Z,4.93
2018-11-01T06:18:47.069Z,2.70
2018-11-01T06:19:50.537Z,2.60
2018-11-01T06:20:53.946Z,1.17
2018-11-01T06:21:57.384Z,2.47
2018-11-01T06:23:00.970Z,1.70
2018-11-01T06:24:04.695Z,2.30
2018-11-01T06:25:08.764Z,1.63
2018-11-01T06:26:12.179Z,1.40
2018-11-01T06:27:15.623Z,1.50
2018-11-01T06:28:19.000Z,1.80
2018-11-01T06:29:22.393Z,1.50
2018-11-01T06:30:25.814Z,1.63
2018-11-01T06:31:29.233Z,2.10
2018-11-01T06:32:32.637Z,2.90
2018-11-01T06:33:36.058Z,1.53
2018-11-01T06:34:43.227Z,2.00
2018-11-01T06:35:48.259Z,1.60
2018-11-01T06:36:51.739Z,2.33
2018-11-01T06:37:55.176Z,5.23
2018-11-01T06:38:58.583Z,1.60
2018-11-01T06:40:02.055Z,2.07
2018-11-01T06:41:05.476Z,2.10
2018-11-01T06:42:08.972Z,3.53
2018-11-01T06:43:12.414Z,6.20
2018-11-01T06:44:15.827Z,3.00
2018-11-01T06:45:19.416Z,2.20
2018-11-01T06:46:22.824Z,2.40
2018-11-01T06:47:26.224Z,1.90
2018-11-01T06:48:29.653Z,2.20
2018-11-01T06:49:33.169Z,5.50
2018-11-01T06:50:36.729Z,2.37
2018-11-01T06:51:40.107Z,1.90
2018-11-01T06:52:43.501Z,1.63
2018-11-01T06:53:46.917Z,2.23
2018-11-01T06:54:50.378Z,4.07
2018-11-01T06:55:53.771Z,1.90
2018-11-01T06:56:57.144Z,2.90
2018-11-01T06:58:00.692Z,3.10
2018-11-01T06:59:05.286Z,2.10
2018-11-01T07:00:12.268Z,6.70
2018-11-01T07:01:15.663Z,2.67
2018-11-01T07:02:19.060Z,2.20
2018-11-01T07:03:22.448Z,2.40
2018-11-01T07:04:26.050Z,3.57
2018-11-01T07:05:29.465Z,4.00
2018-11-01T07:06:33.361Z,3.70
2018-11-01T07:07:37.207Z,5.53
2018-11-01T07:08:40.585Z,4.60
2018-11-01T07:09:43.972Z,6.07
2018-11-01T07:10:47.365Z,2.30
2018-11-01T07:11:51.157Z,2.70
2018-11-01T07:12:54.553Z,2.93
2018-11-01T07:13:57.952Z,2.27
2018-11-01T07:15:01.374Z,4.00
2018-11-01T07:16:05.327Z,4.23
2018-11-01T07:17:08.853Z,3.87
2018-11-01T07:18:12.283Z,1.80
2018-11-01T07:19:15.723Z,3.40
2018-11-01T07:20:19.151Z,5.13
2018-11-01T07:21:22.682Z,2.87
2018-11-01T07:22:26.092Z,2.60
2018-11-01T07:23:29.526Z,3.37
2018-11-01T07:24:32.960Z,4.83
2018-11-01T07:25:36.648Z,2.57
2018-11-01T07:26:39.905Z,3.30
2018-11-01T07:27:43.371Z,3.00
2018-11-01T07:28:46.860Z,3.30
2018-11-01T07:29:50.644Z,3.97
2018-11-01T07:30:54.112Z,2.13
2018-11-01T07:31:57.514Z,4.67
2018-11-01T07:33:00.993Z,1.97
2018-11-01T07:34:04.450Z,2.20
2018-11-01T07:35:08.447Z,2.13
2018-11-01T07:36:11.872Z,2.67
2018-11-01T07:37:15.552Z,3.27
2018-11-01T07:38:18.985Z,2.70
2018-11-01T07:39:22.496Z,3.63
2018-11-01T07:40:26.062Z,2.20
2018-11-01T07:41:29.628Z,3.23
2018-11-01T07:42:34.210Z,3.17
2018-11-01T07:43:37.864Z,2.63
2018-11-01T07:44:41.442Z,2.57
2018-11-01T07:45:44.848Z,3.10
2018-11-01T07:46:48.392Z,3.30
2018-11-01T07:47:51.952Z,2.87
2018-11-01T07:48:55.369Z,3.00
2018-11-01T07:49:58.779Z,3.00
2018-11-01T07:51:02.196Z,2.17
2018-11-01T07:52:05.698Z,2.40
2018-11-01T07:53:09.163Z,5.47
2018-11-01T07:54:12.938Z,3.90
2018-11-01T07:55:16.605Z,2.40
2018-11-01T07:56:20.011Z,3.13
2018-11-01T07:57:23.493Z,2.13
2018-11-01T07:58:27.017Z,2.50
2018-11-01T07:59:30.324Z,4.20
2018-11-01T08:00:34.255Z,3.20
2018-11-01T08:01:37.950Z,2.53
2018-11-01T08:02:42.020Z,2.93
2018-11-01T08:03:45.750Z,4.43
2018-11-01T08:04:49.142Z,3.47
2018-11-01T08:05:54.849Z,4.07
2018-11-01T08:06:58.852Z,4.23
2018-11-01T08:08:02.493Z,5.13
2018-11-01T08:09:08.628Z,2.90
2018-11-01T08:10:14.999Z,3.70
2018-11-01T08:11:18.453Z,3.50
2018-11-01T08:12:21.902Z,5.93
2018-11-01T08:13:25.361Z,4.00
2018-11-01T08:14:29.041Z,4.13
2018-11-01T08:15:32.616Z,4.30
2018-11-01T08:16:36.240Z,4.00
2018-11-01T08:17:39.732Z,3.37
2018-11-01T08:18:43.274Z,4.97
2018-11-01T08:19:46.907Z,3.90
2018-11-01T08:20:50.546Z,8.33
2018-11-01T08:21:53.868Z,3.10
2018-11-01T08:22:57.280Z,4.97
2018-11-01T08:24:02.184Z,8.03
2018-11-01T08:25:05.861Z,3.70
2018-11-01T08:26:09.272Z,3.50
2018-11-01T08:27:12.693Z,3.70
2018-11-01T08:28:16.168Z,4.47
2018-11-01T08:29:20.541Z,5.67
2018-11-01T08:30:24.974Z,3.30
2018-11-01T08:31:29.588Z,4.57
2018-11-01T08:32:33.973Z,3.50
2018-11-01T08:33:38.600Z,4.33
2018-11-01T08:34:43.017Z,5.53
2018-11-01T08:35:47.474Z,4.80
2018-11-01T08:36:51.907Z,16.53
2018-11-01T08:37:56.384Z,11.10
2018-11-01T08:38:59.754Z,13.20
2018-11-01T08:40:03.512Z,17.03
2018-11-01T08:41:06.948Z,4.50
2018-11-01T08:42:10.400Z,5.43
2018-11-01T08:43:13.811Z,5.40
2018-11-01T08:44:17.219Z,5.97
2018-11-01T08:45:20.625Z,4.97
2018-11-01T08:46:24.133Z,12.10
2018-11-01T08:47:27.588Z,3.30
2018-11-01T08:48:30.974Z,7.57
2018-11-01T08:49:34.555Z,6.87
2018-11-01T08:50:37.926Z,6.40
2018-11-01T08:51:41.319Z,15.57
2018-11-01T08:52:44.994Z,2.70
2018-11-01T08:53:48.389Z,5.67
2018-11-01T08:54:51.749Z,5.23
2018-11-01T08:55:55.251Z,5.57
2018-11-01T08:56:58.637Z,13.93
2018-11-01T08:58:02.085Z,5.00
2018-11-01T08:59:05.995Z,3.80
2018-11-01T09:00:10.971Z,5.83
2018-11-01T09:01:14.469Z,4.57
2018-11-01T09:02:17.914Z,4.40
2018-11-01T09:03:21.730Z,6.30
2018-11-01T09:04:25.136Z,6.30
2018-11-01T09:05:28.541Z,4.93
2018-11-01T09:06:31.987Z,6.03
2018-11-01T09:07:35.989Z,4.27
2018-11-01T09:08:39.353Z,4.10
2018-11-01T09:09:43.261Z,5.00
2018-11-01T09:10:46.743Z,7.30
2018-11-01T09:11:50.406Z,2.73
2018-11-01T09:12:53.902Z,6.47
2018-11-01T09:13:57.296Z,7.40
2018-11-01T09:15:00.817Z,6.37
2018-11-01T09:16:04.511Z,3.53
2018-11-01T09:17:08.815Z,3.07
2018-11-01T09:18:12.254Z,3.53
2018-11-01T09:19:15.741Z,5.57
2018-11-01T09:20:19.144Z,3.77
2018-11-01T09:21:22.581Z,2.67
2018-11-01T09:22:25.990Z,3.17
2018-11-01T09:23:29.422Z,6.43
2018-11-01T09:24:33.507Z,3.80
2018-11-01T09:25:37.511Z,2.73
2018-11-01T09:26:41.326Z,4.50
2018-11-01T09:27:44.889Z,4.10
2018-11-01T09:28:48.406Z,3.50
2018-11-01T09:29:51.968Z,5.70
2018-11-01T09:30:55.530Z,3.50
2018-11-01T09:31:59.146Z,5.47
2018-11-01T09:33:02.734Z,8.23
2018-11-01T09:34:06.338Z,4.23
2018-11-01T09:35:13.035Z,3.30
2018-11-01T09:36:16.428Z,5.13
2018-11-01T09:37:19.848Z,3.40
2018-11-01T09:38:23.283Z,4.40
2018-11-01T09:39:26.717Z,5.23
2018-11-01T09:40:30.161Z,4.93
2018-11-01T09:41:33.634Z,3.80
2018-11-01T09:42:37.088Z,3.87
2018-11-01T09:43:41.446Z,6.57
2018-11-01T09:44:44.869Z,5.77
2018-11-01T09:45:48.556Z,5.90
2018-11-01T09:46:52.265Z,7.30
2018-11-01T09:47:55.519Z,2.53
2018-11-01T09:48:58.909Z,6.03
2018-11-01T09:50:02.440Z,3.70
2018-11-01T09:51:07.769Z,4.23
2018-11-01T09:52:11.533Z,3.17
2018-11-01T09:53:14.920Z,3.60
2018-11-01T09:54:18.371Z,3.40
2018-11-01T09:55:21.870Z,2.97
2018-11-01T09:56:25.488Z,4.37
2018-11-01T09:57:28.903Z,4.20
2018-11-01T09:58:32.297Z,4.53
2018-11-01T09:59:35.957Z,3.33
2018-11-01T10:00:39.374Z,2.90
2018-11-01T10:01:42.753Z,4.90
2018-11-01T10:02:46.142Z,9.03
2018-11-01T10:03:49.550Z,3.47
2018-11-01T10:04:52.976Z,2.90
2018-11-01T10:05:56.381Z,2.80
2018-11-01T10:06:59.829Z,4.10
2018-11-01T10:08:03.368Z,3.10
2018-11-01T10:09:08.252Z,2.93
2018-11-01T10:10:12.627Z,2.73
2018-11-01T10:11:16.004Z,3.60
2018-11-01T10:12:19.732Z,4.40
2018-11-01T10:13:23.123Z,3.30
2018-11-01T10:14:26.540Z,3.17
2018-11-01T10:15:30.232Z,3.47
2018-11-01T10:16:34.452Z,7.33
2018-11-01T10:17:38.507Z,6.13
2018-11-01T10:18:41.534Z,3.00
2018-11-01T10:19:44.944Z,2.67
2018-11-01T10:20:48.467Z,3.00
2018-11-01T10:21:51.925Z,4.13
2018-11-01T10:22:55.648Z,3.40
2018-11-01T10:23:58.992Z,3.73
2018-11-01T10:25:02.370Z,4.23
2018-11-01T10:26:06.118Z,4.20
2018-11-01T10:27:19.511Z,2.93
2018-11-01T10:28:13.139Z,4.83
2018-11-01T10:29:16.594Z,3.60
2018-11-01T10:30:21.240Z,4.20
2018-11-01T10:31:24.770Z,4.73
2018-11-01T10:32:28.536Z,4.10
2018-11-01T10:33:31.973Z,3.57
2018-11-01T10:34:35.369Z,3.70
2018-11-01T10:35:38.769Z,3.70
2018-11-01T10:36:42.138Z,3.67
2018-11-01T10:37:45.544Z,2.53
2018-11-01T10:38:49.000Z,3.23
2018-11-01T10:39:52.464Z,4.60
2018-11-01T10:40:55.962Z,3.43
2018-11-01T10:41:59.380Z,4.20
2018-11-01T10:43:02.883Z,2.67
2018-11-01T10:44:06.457Z,4.17
2018-11-01T10:45:10.493Z,2.93
2018-11-01T10:46:14.046Z,3.20
2018-11-01T10:47:17.437Z,7.70
2018-11-01T10:48:20.850Z,2.50
2018-11-01T10:49:24.241Z,3.67
2018-11-01T10:50:27.622Z,4.80
2018-11-01T10:51:31.034Z,3.80
2018-11-01T10:52:35.057Z,3.03
2018-11-01T10:53:38.641Z,3.90
2018-11-01T10:54:42.071Z,2.70
2018-11-01T10:55:45.471Z,2.60
2018-11-01T10:56:51.326Z,4.70
2018-11-01T10:57:54.838Z,7.07
2018-11-01T10:58:58.603Z,4.80
2018-11-01T11:00:02.217Z,3.00
2018-11-01T11:01:11.322Z,2.83
2018-11-01T11:02:16.365Z,3.10
2018-11-01T11:03:19.802Z,2.83
2018-11-01T11:04:23.200Z,3.10
2018-11-01T11:05:26.682Z,3.93
2018-11-01T11:06:30.158Z,3.70
2018-11-01T11:07:33.555Z,3.33
2018-11-01T11:08:37.159Z,3.80
2018-11-01T11:09:40.525Z,3.33
2018-11-01T11:10:43.991Z,3.33
2018-11-01T11:11:47.416Z,2.90
2018-11-01T11:12:50.843Z,3.10
2018-11-01T11:13:54.446Z,3.10
2018-11-01T11:14:57.881Z,3.60
2018-11-01T11:16:01.323Z,4.07
2018-11-01T11:17:04.902Z,3.20
2018-11-01T11:18:08.508Z,3.80
2018-11-01T11:19:11.878Z,3.13
2018-11-01T11:20:15.429Z,3.00
2018-11-01T11:21:18.833Z,2.50
2018-11-01T11:22:22.252Z,3.03
2018-11-01T11:23:25.678Z,3.03
2018-11-01T11:24:29.108Z,2.27
2018-11-01T11:25:32.521Z,7.53
2018-11-01T11:26:35.961Z,8.90
2018-11-01T11:27:39.596Z,3.23
2018-11-01T11:28:43.041Z,4.27
2018-11-01T11:29:46.446Z,3.30
2018-11-01T11:30:49.995Z,4.23
2018-11-01T11:31:53.426Z,4.60
2018-11-01T11:32:56.952Z,5.07
2018-11-01T11:34:00.349Z,4.37
2018-11-01T11:35:03.860Z,4.10
2018-11-01T11:36:08.388Z,3.23
2018-11-01T11:37:12.076Z,11.93
2018-11-01T11:38:16.217Z,4.03
2018-11-01T11:39:20.644Z,8.13
2018-11-01T11:40:24.161Z,3.93
2018-11-01T11:41:28.043Z,18.97
2018-11-01T11:42:31.531Z,5.07
2018-11-01T11:43:35.024Z,3.67
2018-11-01T11:44:38.472Z,3.40
2018-11-01T11:45:42.259Z,3.40
2018-11-01T11:46:45.644Z,2.43
2018-11-01T11:47:49.099Z,3.33
2018-11-01T11:48:52.641Z,4.03
2018-11-01T11:49:56.044Z,6.97
2018-11-01T11:50:59.905Z,3.40
2018-11-01T11:52:03.330Z,4.30
2018-11-01T11:53:06.760Z,4.83
2018-11-01T11:54:10.158Z,4.10
2018-11-01T11:55:13.860Z,4.30
2018-11-01T11:56:17.377Z,3.50
2018-11-01T11:57:20.772Z,4.10
2018-11-01T11:58:24.207Z,2.97
2018-11-01T11:59:27.620Z,3.10
2018-11-01T12:00:31.009Z,3.20
2018-11-01T12:01:34.474Z,4.00
2018-11-01T12:02:37.900Z,3.77
2018-11-01T12:03:41.379Z,3.57
2018-11-01T12:04:44.969Z,6.30
2018-11-01T12:05:48.419Z,2.63
2018-11-01T12:06:51.941Z,3.20
2018-11-01T12:07:55.382Z,2.50
2018-11-01T12:08:58.880Z,2.50
2018-11-01T12:10:02.502Z,3.13
2018-11-01T12:11:06.203Z,6.03
2018-11-01T12:12:09.623Z,4.60
2018-11-01T12:13:13.110Z,3.20
2018-11-01T12:14:16.591Z,3.10
2018-11-01T12:15:20.052Z,2.87
2018-11-01T12:16:23.449Z,3.03
2018-11-01T12:17:26.880Z,2.60
2018-11-01T12:18:30.337Z,7.10
2018-11-01T12:19:33.812Z,5.20
2018-11-01T12:20:37.224Z,4.63
2018-11-01T12:21:40.619Z,5.43
2018-11-01T12:22:44.060Z,4.30
2018-11-01T12:23:47.465Z,3.03
2018-11-01T12:24:50.865Z,6.30
2018-11-01T12:25:54.281Z,2.90
2018-11-01T12:26:57.806Z,4.70
2018-11-01T12:28:01.322Z,4.00
2018-11-01T12:29:05.067Z,2.50
2018-11-01T12:30:10.872Z,3.57
2018-11-01T12:31:14.733Z,3.50
2018-11-01T12:32:18.188Z,3.03
2018-11-01T12:33:21.629Z,2.87
2018-11-01T12:34:25.377Z,2.93
2018-11-01T12:35:29.819Z,2.50
2018-11-01T12:36:33.302Z,2.70
2018-11-01T12:37:36.799Z,3.40
2018-11-01T12:38:40.265Z,3.00
2018-11-01T12:39:43.683Z,2.43
2018-11-01T12:40:47.137Z,4.23
2018-11-01T12:41:50.854Z,2.80
2018-11-01T12:42:54.402Z,3.60
2018-11-01T12:43:57.936Z,12.30
2018-11-01T12:45:01.467Z,3.83
2018-11-01T12:46:05.125Z,2.53
2018-11-01T12:47:08.552Z,3.97
2018-11-01T12:48:12.190Z,2.70
2018-11-01T12:49:15.786Z,2.93
2018-11-01T12:50:19.566Z,2.40
2018-11-01T12:51:23.048Z,2.90
2018-11-01T12:52:26.608Z,2.37
2018-11-01T12:53:30.150Z,2.20
2018-11-01T12:54:33.777Z,4.37
2018-11-01T12:55:37.362Z,2.70
2018-11-01T12:56:40.815Z,2.50
2018-11-01T12:57:44.360Z,2.40
2018-11-01T12:58:47.794Z,2.17
2018-11-01T12:59:51.308Z,4.17
2018-11-01T13:00:54.765Z,2.50
2018-11-01T13:01:58.204Z,2.77
2018-11-01T13:03:01.766Z,9.63
2018-11-01T13:04:05.631Z,3.87
2018-11-01T13:05:09.379Z,8.87
2018-11-01T13:06:12.739Z,3.17
2018-11-01T13:07:16.215Z,3.03
2018-11-01T13:08:19.650Z,7.30
2018-11-01T13:09:23.025Z,7.63
2018-11-01T13:10:26.492Z,5.87
2018-11-01T13:11:30.041Z,3.00
2018-11-01T13:12:33.594Z,5.80
2018-11-01T13:13:37.140Z,3.53
2018-11-01T13:14:40.581Z,3.00
2018-11-01T13:15:44.243Z,4.33
2018-11-01T13:16:47.884Z,4.73
2018-11-01T13:17:51.369Z,5.10
2018-11-01T13:18:54.895Z,4.03
2018-11-01T13:19:58.375Z,8.27
2018-11-01T13:21:01.788Z,5.10
2018-11-01T13:22:05.583Z,4.50
2018-11-01T13:23:08.987Z,6.53
2018-11-01T13:24:12.419Z,7.97
2018-11-01T13:25:16.019Z,6.90
2018-11-01T13:26:19.427Z,5.93
2018-11-01T13:27:23.089Z,2.67
2018-11-01T13:28:26.515Z,6.30
2018-11-01T13:29:30.001Z,5.63
2018-11-01T13:30:33.442Z,9.73
2018-11-01T13:31:36.869Z,5.77
2018-11-01T13:32:40.306Z,4.47
2018-11-01T13:33:43.819Z,3.50
2018-11-01T13:34:47.373Z,5.37
2018-11-01T13:35:50.975Z,3.13
2018-11-01T13:36:54.408Z,3.17
2018-11-01T13:37:57.867Z,6.30
2018-11-01T13:39:01.743Z,4.10
2018-11-01T13:40:06.590Z,6.00
2018-11-01T13:41:10.077Z,2.83
2018-11-01T13:42:13.159Z,3.90
2018-11-01T13:43:16.576Z,4.50
2018-11-01T13:44:20.165Z,4.97
2018-11-01T13:45:23.606Z,5.30
2018-11-01T13:46:27.113Z,12.83
2018-11-01T13:47:30.666Z,6.20
2018-11-01T13:48:34.059Z,6.93
2018-11-01T13:49:37.642Z,23.70
2018-11-01T13:50:41.400Z,27.60
2018-11-01T13:51:44.867Z,153.80
2018-11-01T13:52:48.442Z,125.83
2018-11-01T13:53:51.868Z,193.60
2018-11-01T13:54:55.361Z,202.37
2018-11-01T13:55:59.542Z,543.87
2018-11-01T13:57:02.981Z,623.80
2018-11-01T13:58:06.932Z,759.30
2018-11-01T13:59:10.437Z,1164.67
2018-11-01T14:00:14.929Z,823.10
2018-11-01T14:01:18.708Z,1013.03
2018-11-01T14:02:22.254Z,1132.87
2018-11-01T14:03:25.754Z,1102.47
2018-11-01T14:04:29.224Z,931.07